sensor_id;sensor_type;location;lat;lon;timestamp;temperature;humidity
2855;DHT22;1435;49.472;10.940;2023-02-04T00:03:05;7.50;99.90
2855;DHT22;1435;49.472;10.940;2023-02-04T00:08:07;7.40;99.90
2855;DHT22;1435;49.472;10.940;2023-02-04T00:13:10;7.40;99.90
2855;DHT22;1435;49.472;10.940;2023-02-04T00:18:12;7.30;99.90
2855;DHT22;1435;49.472;10.940;2023-02-04T00:23:13;7.40;99.90
2855;DHT22;1435;49.472;10.940;2023-02-04T00:28:16;7.40;99.90
2855;DHT22;1435;49.472;10.940;2023-02-04T00:33:18;7.40;99.90
2855;DHT22;1435;49.472;10.940;2023-02-04T00:38:20;7.40;99.90
2855;DHT22;1435;49.472;10.940;2023-02-04T00:43:23;7.40;99.90
2855;DHT22;1435;49.472;10.940;2023-02-04T00:48:25;7.40;99.90
2855;DHT22;1435;49.472;10.940;2023-02-04T00:53:27;7.40;99.90
2855;DHT22;1435;49.472;10.940;2023-02-04T00:58:30;7.30;99.90
2855;DHT22;1435;49.472;10.940;2023-02-04T01:03:31;7.30;99.90
2855;DHT22;1435;49.472;10.940;2023-02-04T01:08:33;7.30;99.90
2855;DHT22;1435;49.472;10.940;2023-02-04T01:13:36;7.30;99.90
2855;DHT22;1435;49.472;10.940;2023-02-04T01:18:38;7.30;99.90
2855;DHT22;1435;49.472;10.940;2023-02-04T01:23:40;7.10;99.90
2855;DHT22;1435;49.472;10.940;2023-02-04T01:28:43;7.00;99.90
2855;DHT22;1435;49.472;10.940;2023-02-04T01:33:44;7.10;99.90
2855;DHT22;1435;49.472;10.940;2023-02-04T01:38:46;6.90;99.90
2855;DHT22;1435;49.472;10.940;2023-02-04T01:43:50;7.00;99.90
2855;DHT22;1435;49.472;10.940;2023-02-04T01:48:51;6.90;99.90
2855;DHT22;1435;49.472;10.940;2023-02-04T01:53:53;7.00;99.90
2855;DHT22;1435;49.472;10.940;2023-02-04T01:58:57;6.90;99.90
2855;DHT22;1435;49.472;10.940;2023-02-04T02:03:59;6.90;99.90
2855;DHT22;1435;49.472;10.940;2023-02-04T02:09:01;6.80;99.90
2855;DHT22;1435;49.472;10.940;2023-02-04T02:14:04;7.00;99.90
2855;DHT22;1435;49.472;10.940;2023-02-04T02:19:09;7.00;99.90
2855;DHT22;1435;49.472;10.940;2023-02-04T02:24:24;7.00;99.90
2855;DHT22;1435;49.472;10.940;2023-02-04T02:29:26;7.00;99.90
2855;DHT22;1435;49.472;10.940;2023-02-04T02:34:28;7.00;99.90
2855;DHT22;1435;49.472;10.940;2023-02-04T02:39:32;6.90;99.90
2855;DHT22;1435;49.472;10.940;2023-02-04T02:44:34;6.90;99.90
2855;DHT22;1435;49.472;10.940;2023-02-04T02:49:35;7.00;99.90
2855;DHT22;1435;49.472;10.940;2023-02-04T02:54:41;7.00;99.90
2855;DHT22;1435;49.472;10.940;2023-02-04T02:59:43;6.90;99.90
2855;DHT22;1435;49.472;10.940;2023-02-04T03:04:48;6.80;99.90
2855;DHT22;1435;49.472;10.940;2023-02-04T03:09:52;6.70;99.90
2855;DHT22;1435;49.472;10.940;2023-02-04T03:14:54;6.70;99.90
2855;DHT22;1435;49.472;10.940;2023-02-04T03:19:56;6.70;99.90
2855;DHT22;1435;49.472;10.940;2023-02-04T03:25:00;6.70;99.90
2855;DHT22;1435;49.472;10.940;2023-02-04T03:30:02;6.70;99.90
2855;DHT22;1435;49.472;10.940;2023-02-04T03:35:04;6.70;99.90
2855;DHT22;1435;49.472;10.940;2023-02-04T03:40:09;6.60;99.90
2855;DHT22;1435;49.472;10.940;2023-02-04T03:45:11;6.70;99.90
2855;DHT22;1435;49.472;10.940;2023-02-04T03:50:13;6.70;99.90
2855;DHT22;1435;49.472;10.940;2023-02-04T03:55:16;6.60;99.90
2855;DHT22;1435;49.472;10.940;2023-02-04T04:00:18;6.60;99.90
2855;DHT22;1435;49.472;10.940;2023-02-04T04:05:20;6.70;99.90
2855;DHT22;1435;49.472;10.940;2023-02-04T04:10:23;6.60;99.90
2855;DHT22;1435;49.472;10.940;2023-02-04T04:15:25;6.60;99.90
2855;DHT22;1435;49.472;10.940;2023-02-04T04:20:26;6.70;99.90
2855;DHT22;1435;49.472;10.940;2023-02-04T04:25:29;6.60;99.90
2855;DHT22;1435;49.472;10.940;2023-02-04T04:30:31;6.50;99.90
2855;DHT22;1435;49.472;10.940;2023-02-04T04:35:33;6.50;99.90
2855;DHT22;1435;49.472;10.940;2023-02-04T04:40:36;6.50;99.90
2855;DHT22;1435;49.472;10.940;2023-02-04T04:45:38;6.30;99.90
2855;DHT22;1435;49.472;10.940;2023-02-04T04:50:39;6.40;99.90
2855;DHT22;1435;49.472;10.940;2023-02-04T04:55:42;6.40;99.90
2855;DHT22;1435;49.472;10.940;2023-02-04T05:00:44;6.50;99.90
2855;DHT22;1435;49.472;10.940;2023-02-04T05:05:46;6.50;99.90
2855;DHT22;1435;49.472;10.940;2023-02-04T05:10:49;6.40;99.90
2855;DHT22;1435;49.472;10.940;2023-02-04T05:15:50;6.30;99.90
2855;DHT22;1435;49.472;10.940;2023-02-04T05:20:52;6.30;99.90
2855;DHT22;1435;49.472;10.940;2023-02-04T05:25:55;6.40;99.90
2855;DHT22;1435;49.472;10.940;2023-02-04T05:30:57;6.40;99.90
2855;DHT22;1435;49.472;10.940;2023-02-04T05:35:59;6.40;99.90
2855;DHT22;1435;49.472;10.940;2023-02-04T05:41:02;6.40;99.90
2855;DHT22;1435;49.472;10.940;2023-02-04T05:46:04;6.50;99.90
2855;DHT22;1435;49.472;10.940;2023-02-04T05:51:06;6.50;99.90
2855;DHT22;1435;49.472;10.940;2023-02-04T05:56:09;6.50;99.90
2855;DHT22;1435;49.472;10.940;2023-02-04T06:01:10;6.50;99.90
2855;DHT22;1435;49.472;10.940;2023-02-04T06:06:12;6.50;99.90
2855;DHT22;1435;49.472;10.940;2023-02-04T06:11:15;6.40;99.90
2855;DHT22;1435;49.472;10.940;2023-02-04T06:16:17;6.50;99.90
2855;DHT22;1435;49.472;10.940;2023-02-04T06:21:19;6.40;99.90
2855;DHT22;1435;49.472;10.940;2023-02-04T06:26:22;6.50;99.90
2855;DHT22;1435;49.472;10.940;2023-02-04T06:31:23;6.40;99.90
2855;DHT22;1435;49.472;10.940;2023-02-04T06:36:25;6.40;99.90
2855;DHT22;1435;49.472;10.940;2023-02-04T06:41:28;6.50;99.90
2855;DHT22;1435;49.472;10.940;2023-02-04T06:46:30;6.50;99.90
2855;DHT22;1435;49.472;10.940;2023-02-04T06:51:31;6.50;99.90
2855;DHT22;1435;49.472;10.940;2023-02-04T06:56:34;6.50;99.90
2855;DHT22;1435;49.472;10.940;2023-02-04T07:01:37;6.50;99.90
2855;DHT22;1435;49.472;10.940;2023-02-04T07:06:38;6.50;99.90
2855;DHT22;1435;49.472;10.940;2023-02-04T07:11:41;6.40;99.90
2855;DHT22;1435;49.472;10.940;2023-02-04T07:16:43;6.40;99.90
2855;DHT22;1435;49.472;10.940;2023-02-04T07:21:45;6.30;99.90
2855;DHT22;1435;49.472;10.940;2023-02-04T07:26:48;6.20;99.90
2855;DHT22;1435;49.472;10.940;2023-02-04T07:31:50;6.20;99.90
2855;DHT22;1435;49.472;10.940;2023-02-04T07:36:52;6.10;99.90
2855;DHT22;1435;49.472;10.940;2023-02-04T07:41:55;6.00;99.90
2855;DHT22;1435;49.472;10.940;2023-02-04T07:46:57;6.00;99.90
2855;DHT22;1435;49.472;10.940;2023-02-04T07:52:00;5.90;99.90
2855;DHT22;1435;49.472;10.940;2023-02-04T07:57:03;5.90;99.90
2855;DHT22;1435;49.472;10.940;2023-02-04T08:02:05;5.90;99.90
2855;DHT22;1435;49.472;10.940;2023-02-04T08:07:07;5.90;99.90
2855;DHT22;1435;49.472;10.940;2023-02-04T08:12:10;6.00;99.90
2855;DHT22;1435;49.472;10.940;2023-02-04T08:17:12;6.10;99.90
2855;DHT22;1435;49.472;10.940;2023-02-04T08:22:13;6.10;99.90
2855;DHT22;1435;49.472;10.940;2023-02-04T08:27:16;6.10;99.90
2855;DHT22;1435;49.472;10.940;2023-02-04T08:32:18;6.20;99.90
2855;DHT22;1435;49.472;10.940;2023-02-04T08:37:20;6.20;99.90
2855;DHT22;1435;49.472;10.940;2023-02-04T08:42:23;6.20;99.90
2855;DHT22;1435;49.472;10.940;2023-02-04T08:47:25;6.30;99.90
2855;DHT22;1435;49.472;10.940;2023-02-04T08:52:26;6.30;99.90
2855;DHT22;1435;49.472;10.940;2023-02-04T08:57:29;6.30;99.90
2855;DHT22;1435;49.472;10.940;2023-02-04T09:02:31;6.30;99.90
2855;DHT22;1435;49.472;10.940;2023-02-04T09:07:33;6.40;99.90
2855;DHT22;1435;49.472;10.940;2023-02-04T09:12:36;6.40;99.90
2855;DHT22;1435;49.472;10.940;2023-02-04T09:17:38;6.40;99.90
2855;DHT22;1435;49.472;10.940;2023-02-04T09:22:41;6.40;99.90
2855;DHT22;1435;49.472;10.940;2023-02-04T09:27:44;6.50;99.90
2855;DHT22;1435;49.472;10.940;2023-02-04T09:32:46;6.50;99.90
2855;DHT22;1435;49.472;10.940;2023-02-04T09:37:48;6.50;99.90
2855;DHT22;1435;49.472;10.940;2023-02-04T09:42:51;6.50;99.90
2855;DHT22;1435;49.472;10.940;2023-02-04T09:47:56;6.60;99.90
2855;DHT22;1435;49.472;10.940;2023-02-04T09:53:02;6.50;99.90
2855;DHT22;1435;49.472;10.940;2023-02-04T09:58:10;6.60;99.90
2855;DHT22;1435;49.472;10.940;2023-02-04T10:03:18;6.60;99.90
2855;DHT22;1435;49.472;10.940;2023-02-04T10:08:26;6.60;99.90
2855;DHT22;1435;49.472;10.940;2023-02-04T10:13:35;6.50;99.90
2855;DHT22;1435;49.472;10.940;2023-02-04T10:18:38;6.50;99.90
2855;DHT22;1435;49.472;10.940;2023-02-04T10:23:40;6.60;99.90
2855;DHT22;1435;49.472;10.940;2023-02-04T10:28:44;6.60;99.90
2855;DHT22;1435;49.472;10.940;2023-02-04T10:33:46;6.70;99.90
2855;DHT22;1435;49.472;10.940;2023-02-04T10:38:58;6.70;99.90
2855;DHT22;1435;49.472;10.940;2023-02-04T10:44:06;6.80;99.90
2855;DHT22;1435;49.472;10.940;2023-02-04T10:49:17;6.80;99.90
2855;DHT22;1435;49.472;10.940;2023-02-04T10:54:21;6.90;99.90
2855;DHT22;1435;49.472;10.940;2023-02-04T10:59:34;6.80;99.90
2855;DHT22;1435;49.472;10.940;2023-02-04T11:04:36;6.80;99.90
2855;DHT22;1435;49.472;10.940;2023-02-04T11:09:40;6.80;99.90
2855;DHT22;1435;49.472;10.940;2023-02-04T11:14:53;6.90;99.90
2855;DHT22;1435;49.472;10.940;2023-02-04T11:19:55;6.90;99.90
2855;DHT22;1435;49.472;10.940;2023-02-04T11:24:57;7.00;99.90
2855;DHT22;1435;49.472;10.940;2023-02-04T11:30:16;7.00;99.90
2855;DHT22;1435;49.472;10.940;2023-02-04T11:35:23;7.10;99.90
2855;DHT22;1435;49.472;10.940;2023-02-04T11:40:30;7.10;99.90
2855;DHT22;1435;49.472;10.940;2023-02-04T11:45:35;7.10;99.90
2855;DHT22;1435;49.472;10.940;2023-02-04T11:50:37;7.20;99.90
2855;DHT22;1435;49.472;10.940;2023-02-04T11:55:45;7.20;99.90
2855;DHT22;1435;49.472;10.940;2023-02-04T12:00:49;7.20;99.90
2855;DHT22;1435;49.472;10.940;2023-02-04T12:05:52;7.20;99.90
2855;DHT22;1435;49.472;10.940;2023-02-04T12:11:01;7.20;99.90
2855;DHT22;1435;49.472;10.940;2023-02-04T12:16:05;7.20;99.90
2855;DHT22;1435;49.472;10.940;2023-02-04T12:21:07;7.20;99.90
2855;DHT22;1435;49.472;10.940;2023-02-04T12:26:09;7.20;99.90
2855;DHT22;1435;49.472;10.940;2023-02-04T12:31:13;7.20;99.90
2855;DHT22;1435;49.472;10.940;2023-02-04T12:36:14;7.20;99.90
2855;DHT22;1435;49.472;10.940;2023-02-04T12:41:16;7.20;99.90
2855;DHT22;1435;49.472;10.940;2023-02-04T12:46:20;7.30;99.90
2855;DHT22;1435;49.472;10.940;2023-02-04T12:51:22;7.30;99.90
2855;DHT22;1435;49.472;10.940;2023-02-04T12:56:24;7.30;99.90
2855;DHT22;1435;49.472;10.940;2023-02-04T13:01:27;7.30;99.90
2855;DHT22;1435;49.472;10.940;2023-02-04T13:06:29;7.30;99.90
2855;DHT22;1435;49.472;10.940;2023-02-04T13:11:31;7.30;99.90
2855;DHT22;1435;49.472;10.940;2023-02-04T13:16:34;7.30;99.90
2855;DHT22;1435;49.472;10.940;2023-02-04T13:21:35;7.30;99.90
2855;DHT22;1435;49.472;10.940;2023-02-04T13:26:37;7.40;99.90
2855;DHT22;1435;49.472;10.940;2023-02-04T13:31:40;7.40;99.90
2855;DHT22;1435;49.472;10.940;2023-02-04T13:36:42;7.40;99.90
2855;DHT22;1435;49.472;10.940;2023-02-04T13:41:44;7.20;99.90
2855;DHT22;1435;49.472;10.940;2023-02-04T13:46:48;7.30;99.90
2855;DHT22;1435;49.472;10.940;2023-02-04T13:51:49;7.40;99.90
2855;DHT22;1435;49.472;10.940;2023-02-04T13:56:51;7.40;99.90
2855;DHT22;1435;49.472;10.940;2023-02-04T14:01:54;7.40;99.90
2855;DHT22;1435;49.472;10.940;2023-02-04T14:06:56;7.40;99.90
2855;DHT22;1435;49.472;10.940;2023-02-04T14:11:58;7.40;99.90
2855;DHT22;1435;49.472;10.940;2023-02-04T14:17:01;7.40;99.90
2855;DHT22;1435;49.472;10.940;2023-02-04T14:22:03;7.40;99.90
2855;DHT22;1435;49.472;10.940;2023-02-04T14:27:04;7.40;99.90
2855;DHT22;1435;49.472;10.940;2023-02-04T14:32:08;7.40;99.90
2855;DHT22;1435;49.472;10.940;2023-02-04T14:37:10;7.40;99.90
2855;DHT22;1435;49.472;10.940;2023-02-04T14:42:12;7.40;99.90
2855;DHT22;1435;49.472;10.940;2023-02-04T14:47:15;7.50;99.90
2855;DHT22;1435;49.472;10.940;2023-02-04T14:52:17;7.90;99.90
2855;DHT22;1435;49.472;10.940;2023-02-04T14:57:19;8.40;99.90
2855;DHT22;1435;49.472;10.940;2023-02-04T15:02:22;8.70;99.90
2855;DHT22;1435;49.472;10.940;2023-02-04T15:07:24;9.20;99.90
2855;DHT22;1435;49.472;10.940;2023-02-04T15:12:25;9.60;99.10
2855;DHT22;1435;49.472;10.940;2023-02-04T15:17:29;9.60;98.30
2855;DHT22;1435;49.472;10.940;2023-02-04T15:22:30;9.80;97.70
2855;DHT22;1435;49.472;10.940;2023-02-04T15:27:32;9.80;97.30
2855;DHT22;1435;49.472;10.940;2023-02-04T15:32:35;9.80;97.10
2855;DHT22;1435;49.472;10.940;2023-02-04T15:37:37;9.50;97.30
2855;DHT22;1435;49.472;10.940;2023-02-04T15:42:39;9.30;97.70
2855;DHT22;1435;49.472;10.940;2023-02-04T15:47:42;9.00;98.20
2855;DHT22;1435;49.472;10.940;2023-02-04T15:52:44;8.70;99.00
2855;DHT22;1435;49.472;10.940;2023-02-04T15:57:46;8.50;99.80
2855;DHT22;1435;49.472;10.940;2023-02-04T16:02:49;8.30;99.90
2855;DHT22;1435;49.472;10.940;2023-02-04T16:07:50;8.20;99.90
2855;DHT22;1435;49.472;10.940;2023-02-04T16:12:52;8.00;99.90
2855;DHT22;1435;49.472;10.940;2023-02-04T16:17:57;7.80;99.90
2855;DHT22;1435;49.472;10.940;2023-02-04T16:22:59;7.70;99.90
2855;DHT22;1435;49.472;10.940;2023-02-04T16:28:01;7.50;99.90
2855;DHT22;1435;49.472;10.940;2023-02-04T16:33:05;7.30;99.90
2855;DHT22;1435;49.472;10.940;2023-02-04T16:38:07;7.10;99.90
2855;DHT22;1435;49.472;10.940;2023-02-04T16:43:08;6.80;99.90
2855;DHT22;1435;49.472;10.940;2023-02-04T16:48:12;6.60;99.90
2855;DHT22;1435;49.472;10.940;2023-02-04T16:53:13;6.40;99.90
2855;DHT22;1435;49.472;10.940;2023-02-04T16:58:15;6.20;99.90
2855;DHT22;1435;49.472;10.940;2023-02-04T17:03:19;6.00;99.90
2855;DHT22;1435;49.472;10.940;2023-02-04T17:08:21;5.80;99.90
2855;DHT22;1435;49.472;10.940;2023-02-04T17:13:24;5.70;99.90
2855;DHT22;1435;49.472;10.940;2023-02-04T17:18:27;5.60;99.90
2855;DHT22;1435;49.472;10.940;2023-02-04T17:23:29;5.40;99.90
2855;DHT22;1435;49.472;10.940;2023-02-04T17:28:31;5.30;99.90
2855;DHT22;1435;49.472;10.940;2023-02-04T17:33:34;5.10;99.90
2855;DHT22;1435;49.472;10.940;2023-02-04T17:38:36;5.00;99.90
2855;DHT22;1435;49.472;10.940;2023-02-04T17:43:38;4.90;99.90
2855;DHT22;1435;49.472;10.940;2023-02-04T17:48:42;4.80;99.90
2855;DHT22;1435;49.472;10.940;2023-02-04T17:53:43;4.60;99.90
2855;DHT22;1435;49.472;10.940;2023-02-04T17:58:45;4.50;99.90
2855;DHT22;1435;49.472;10.940;2023-02-04T18:03:48;4.40;99.90
2855;DHT22;1435;49.472;10.940;2023-02-04T18:08:51;4.30;99.90
2855;DHT22;1435;49.472;10.940;2023-02-04T18:13:59;4.30;99.90
2855;DHT22;1435;49.472;10.940;2023-02-04T18:19:15;4.20;99.90
2855;DHT22;1435;49.472;10.940;2023-02-04T18:24:21;4.10;99.90
2855;DHT22;1435;49.472;10.940;2023-02-04T18:29:30;4.00;99.90
2855;DHT22;1435;49.472;10.940;2023-02-04T18:34:37;3.90;99.90
2855;DHT22;1435;49.472;10.940;2023-02-04T18:39:39;3.80;99.90
2855;DHT22;1435;49.472;10.940;2023-02-04T18:44:41;3.70;99.90
2855;DHT22;1435;49.472;10.940;2023-02-04T18:49:44;3.60;99.90
2855;DHT22;1435;49.472;10.940;2023-02-04T18:54:47;3.60;99.90
2855;DHT22;1435;49.472;10.940;2023-02-04T18:59:52;3.50;99.90
2855;DHT22;1435;49.472;10.940;2023-02-04T19:04:57;3.50;99.90
2855;DHT22;1435;49.472;10.940;2023-02-04T19:09:59;3.40;99.90
2855;DHT22;1435;49.472;10.940;2023-02-04T19:15:03;3.30;99.90
2855;DHT22;1435;49.472;10.940;2023-02-04T19:20:21;3.20;99.90
2855;DHT22;1435;49.472;10.940;2023-02-04T19:25:27;3.20;99.90
2855;DHT22;1435;49.472;10.940;2023-02-04T19:30:43;3.10;99.90
2855;DHT22;1435;49.472;10.940;2023-02-04T19:35:47;3.10;99.90
2855;DHT22;1435;49.472;10.940;2023-02-04T19:40:50;3.00;99.90
2855;DHT22;1435;49.472;10.940;2023-02-04T19:45:52;2.90;99.90
2855;DHT22;1435;49.472;10.940;2023-02-04T19:50:56;2.70;99.90
2855;DHT22;1435;49.472;10.940;2023-02-04T19:55:57;2.70;99.90
2855;DHT22;1435;49.472;10.940;2023-02-04T20:01:00;2.70;99.90
2855;DHT22;1435;49.472;10.940;2023-02-04T20:06:32;2.70;99.90
2855;DHT22;1435;49.472;10.940;2023-02-04T20:11:37;2.60;99.90
2855;DHT22;1435;49.472;10.940;2023-02-04T20:16:46;2.50;99.90
2855;DHT22;1435;49.472;10.940;2023-02-04T20:22:10;2.40;99.90
2855;DHT22;1435;49.472;10.940;2023-02-04T20:27:19;2.40;99.90
2855;DHT22;1435;49.472;10.940;2023-02-04T20:32:23;2.40;99.90
2855;DHT22;1435;49.472;10.940;2023-02-04T20:37:27;2.30;99.90
2855;DHT22;1435;49.472;10.940;2023-02-04T20:42:34;2.20;99.90
2855;DHT22;1435;49.472;10.940;2023-02-04T20:47:39;2.20;99.90
2855;DHT22;1435;49.472;10.940;2023-02-04T20:53:09;2.10;99.90
2855;DHT22;1435;49.472;10.940;2023-02-04T20:58:18;2.10;99.90
2855;DHT22;1435;49.472;10.940;2023-02-04T21:03:23;2.00;99.90
2855;DHT22;1435;49.472;10.940;2023-02-04T21:08:35;1.90;99.90
2855;DHT22;1435;49.472;10.940;2023-02-04T21:13:40;1.70;99.90
2855;DHT22;1435;49.472;10.940;2023-02-04T21:18:42;1.70;99.90
2855;DHT22;1435;49.472;10.940;2023-02-04T21:23:47;1.60;99.90
2855;DHT22;1435;49.472;10.940;2023-02-04T21:28:49;1.60;99.90
2855;DHT22;1435;49.472;10.940;2023-02-04T21:33:53;1.60;99.90
2855;DHT22;1435;49.472;10.940;2023-02-04T21:38:57;1.50;99.90
2855;DHT22;1435;49.472;10.940;2023-02-04T21:43:59;1.40;99.90
2855;DHT22;1435;49.472;10.940;2023-02-04T21:49:01;1.30;99.90
2855;DHT22;1435;49.472;10.940;2023-02-04T21:54:06;1.30;99.90
2855;DHT22;1435;49.472;10.940;2023-02-04T21:59:07;1.30;99.90
2855;DHT22;1435;49.472;10.940;2023-02-04T22:04:09;1.30;99.90
2855;DHT22;1435;49.472;10.940;2023-02-04T22:09:12;1.20;99.90
2855;DHT22;1435;49.472;10.940;2023-02-04T22:14:15;1.20;99.90
2855;DHT22;1435;49.472;10.940;2023-02-04T22:19:34;1.20;99.90
2855;DHT22;1435;49.472;10.940;2023-02-04T22:24:37;1.20;99.90
2855;DHT22;1435;49.472;10.940;2023-02-04T22:29:39;1.20;99.90
2855;DHT22;1435;49.472;10.940;2023-02-04T22:34:41;1.10;99.90
2855;DHT22;1435;49.472;10.940;2023-02-04T22:39:44;1.00;99.90
2855;DHT22;1435;49.472;10.940;2023-02-04T22:44:45;1.00;99.90
2855;DHT22;1435;49.472;10.940;2023-02-04T22:49:47;0.90;99.90
2855;DHT22;1435;49.472;10.940;2023-02-04T22:54:50;0.80;99.90
2855;DHT22;1435;49.472;10.940;2023-02-04T22:59:52;0.80;99.90
2855;DHT22;1435;49.472;10.940;2023-02-04T23:04:54;0.70;99.90
2855;DHT22;1435;49.472;10.940;2023-02-04T23:09:57;0.70;99.90
2855;DHT22;1435;49.472;10.940;2023-02-04T23:14:59;0.60;99.90
2855;DHT22;1435;49.472;10.940;2023-02-04T23:20:01;0.60;99.90
2855;DHT22;1435;49.472;10.940;2023-02-04T23:25:05;0.60;99.90
2855;DHT22;1435;49.472;10.940;2023-02-04T23:30:07;0.50;99.90
2855;DHT22;1435;49.472;10.940;2023-02-04T23:35:10;0.50;99.90
2855;DHT22;1435;49.472;10.940;2023-02-04T23:40:13;0.50;99.90
2855;DHT22;1435;49.472;10.940;2023-02-04T23:45:14;0.40;99.90
2855;DHT22;1435;49.472;10.940;2023-02-04T23:50:16;0.40;99.90
2855;DHT22;1435;49.472;10.940;2023-02-04T23:55:19;0.30;99.90
